Time;durP1;ratioP1;P1;durP2;ratioP2;P2;SDS_P1;SDS_P2;PMS_P1;PMS_P2;Temp;Humidity;BMP_temperature;BMP_pressure;BME280_temperature;BME280_humidity;BME280_pressure;Samples;Min_cycle;Max_cycle;Signal;HPM_P1;HPM_P2
2022/05/02 00:00:39;;;;;;;3.30;2.97;;;7.90;99.90;;;;;;5060288;28;20415;-80
2022/05/02 00:03:04;;;;;;;4.13;3.10;;;7.90;99.90;;;;;;5057936;28;20119;-80
2022/05/02 00:05:30;;;;;;;3.00;2.67;;;7.90;99.90;;;;;;5059375;28;20517;-79
2022/05/02 00:07:56;;;;;;;4.85;4.13;;;7.90;99.90;;;;;;5060307;28;20037;-80
2022/05/02 00:10:22;;;;;;;2.25;2.15;;;7.80;99.90;;;;;;5059010;28;20418;-80
2022/05/02 00:12:49;;;;;;;2.75;2.55;;;7.80;99.90;;;;;;5058606;28;20138;-80
2022/05/02 00:15:14;;;;;;;2.65;2.55;;;7.80;99.90;;;;;;5059157;28;20279;-80
2022/05/02 00:17:59;;;;;;;5.45;2.80;;;7.80;99.90;;;;;;5059679;28;20041;-80
2022/05/02 00:20:34;;;;;;;3.55;3.28;;;7.80;99.90;;;;;;5058656;28;20499;-80
2022/05/02 00:23:02;;;;;;;6.35;3.20;;;7.70;99.90;;;;;;5059238;28;20123;-80
2022/05/02 00:25:28;;;;;;;3.20;2.83;;;7.70;99.90;;;;;;5059481;28;20726;-80
2022/05/02 00:27:54;;;;;;;2.90;2.20;;;7.70;99.90;;;;;;5059869;28;20041;-80
2022/05/02 00:30:20;;;;;;;3.95;3.28;;;7.70;99.90;;;;;;5059541;28;20101;-80
2022/05/02 00:32:46;;;;;;;4.90;3.13;;;7.70;99.90;;;;;;5059330;28;20047;-80
2022/05/02 00:35:12;;;;;;;3.40;3.10;;;7.70;99.90;;;;;;5057711;28;20044;-80
2022/05/02 00:37:38;;;;;;;3.22;3.03;;;7.60;99.90;;;;;;5058138;28;20530;-79
2022/05/02 00:40:06;;;;;;;4.50;3.28;;;7.60;99.90;;;;;;5059531;28;20388;-80
2022/05/02 00:42:32;;;;;;;2.90;2.70;;;7.60;99.90;;;;;;5059235;28;20040;-80
2022/05/02 00:44:57;;;;;;;5.85;3.70;;;7.50;99.90;;;;;;5059474;28;20048;-80
2022/05/02 00:47:23;;;;;;;8.18;3.28;;;7.50;99.90;;;;;;5059335;28;20048;-80
2022/05/02 00:49:49;;;;;;;3.45;2.88;;;7.50;99.90;;;;;;5058267;28;20037;-80
2022/05/02 00:52:16;;;;;;;3.55;3.13;;;7.60;99.90;;;;;;5059253;28;20122;-81
2022/05/02 00:54:43;;;;;;;8.77;3.92;;;7.50;99.90;;;;;;5058934;28;20071;-80
2022/05/02 00:57:12;;;;;;;3.55;3.17;;;7.50;99.90;;;;;;5058514;28;20505;-80
2022/05/02 00:59:38;;;;;;;3.15;2.92;;;7.50;99.90;;;;;;5058934;28;20336;-80
2022/05/02 01:02:05;;;;;;;5.35;3.65;;;7.50;99.90;;;;;;5059064;28;20043;-80
2022/05/02 01:04:31;;;;;;;3.58;2.88;;;7.50;99.90;;;;;;5058425;28;20388;-80
2022/05/02 01:07:10;;;;;;;3.95;2.95;;;7.40;99.90;;;;;;5057969;28;20055;-80
2022/05/02 01:09:44;;;;;;;5.05;2.90;;;7.40;99.90;;;;;;5078439;22;20112;-80
2022/05/02 01:12:11;;;;;;;2.92;2.72;;;7.40;99.90;;;;;;5078681;28;20036;-80
2022/05/02 01:14:38;;;;;;;4.43;3.67;;;7.40;99.90;;;;;;5079474;28;20544;-80
2022/05/02 01:17:04;;;;;;;4.97;3.58;;;7.40;99.90;;;;;;5078865;28;20108;-80
2022/05/02 01:19:30;;;;;;;3.92;3.63;;;7.40;99.90;;;;;;5060405;28;20044;-80
2022/05/02 01:21:56;;;;;;;5.85;3.55;;;7.40;99.90;;;;;;5061455;28;20238;-80
2022/05/02 01:24:21;;;;;;;3.28;3.08;;;7.40;99.90;;;;;;5060503;28;20101;-80
2022/05/02 01:26:47;;;;;;;4.32;3.33;;;7.30;99.90;;;;;;5079302;28;20047;-80
2022/05/02 01:29:12;;;;;;;4.47;3.22;;;7.30;99.90;;;;;;5078853;28;20051;-80
2022/05/02 01:31:39;;;;;;;3.38;3.13;;;7.30;99.90;;;;;;5079352;28;20105;-80
2022/05/02 01:34:05;;;;;;;3.42;2.53;;;7.20;99.90;;;;;;5078480;28;20040;-80
2022/05/02 01:36:30;;;;;;;3.15;2.85;;;7.20;99.90;;;;;;5061234;28;20560;-80
2022/05/02 01:38:56;;;;;;;3.97;3.65;;;7.20;99.90;;;;;;5079262;28;20039;-80
2022/05/02 01:41:21;;;;;;;6.15;2.97;;;7.20;99.90;;;;;;5078557;28;20040;-80
2022/05/02 01:43:48;;;;;;;3.38;3.08;;;7.20;99.90;;;;;;5078863;28;20145;-80
2022/05/02 01:46:14;;;;;;;3.17;2.88;;;7.20;99.90;;;;;;5078906;28;20035;-80
2022/05/02 01:48:40;;;;;;;3.90;3.38;;;7.20;99.90;;;;;;5045036;28;20283;-80
2022/05/02 01:51:05;;;;;;;2.97;2.67;;;7.20;99.90;;;;;;5063630;28;20432;-81
2022/05/02 01:53:31;;;;;;;3.85;3.47;;;7.20;99.90;;;;;;5064423;28;20048;-80
2022/05/02 01:55:57;;;;;;;3.50;3.17;;;7.20;99.90;;;;;;5082878;28;20180;-80
2022/05/02 01:58:23;;;;;;;2.38;2.20;;;7.20;99.90;;;;;;5082340;28;20043;-80
2022/05/02 02:00:49;;;;;;;4.85;3.05;;;7.20;99.90;;;;;;5082347;28;20047;-80
2022/05/02 02:03:14;;;;;;;3.13;2.92;;;7.20;99.90;;;;;;5064114;28;20052;-80
2022/05/02 02:05:49;;;;;;;3.08;2.88;;;7.10;99.90;;;;;;5081499;28;20457;-80
2022/05/02 02:08:42;;;;;;;3.22;2.97;;;7.10;99.90;;;;;;5082121;28;20068;-80
2022/05/02 02:11:09;;;;;;;5.90;3.53;;;7.10;99.90;;;;;;5059832;28;20123;-80
2022/05/02 02:13:35;;;;;;;2.63;2.42;;;7.10;99.90;;;;;;5063628;28;20036;-79
2022/05/02 02:16:01;;;;;;;3.10;2.55;;;7.10;99.90;;;;;;5081967;28;20035;-80
2022/05/02 02:18:27;;;;;;;5.03;4.63;;;7.00;99.90;;;;;;5082866;28;20089;-79
2022/05/02 02:20:54;;;;;;;4.15;3.80;;;7.00;99.90;;;;;;5081122;28;20055;-80
2022/05/02 02:23:21;;;;;;;8.40;4.55;;;7.00;99.90;;;;;;5082317;28;20082;-79
2022/05/02 02:25:46;;;;;;;5.03;3.33;;;7.00;99.90;;;;;;5081694;28;20067;-80
2022/05/02 02:28:13;;;;;;;3.45;3.17;;;7.00;99.90;;;;;;5063498;28;20469;-80
2022/05/02 02:30:39;;;;;;;4.07;3.78;;;7.00;99.90;;;;;;5082228;28;20125;-80
2022/05/02 02:33:05;;;;;;;3.58;3.38;;;7.00;99.90;;;;;;5063083;28;20529;-80
2022/05/02 02:35:31;;;;;;;2.70;2.47;;;7.00;99.90;;;;;;5081626;28;20043;-80
2022/05/02 02:37:57;;;;;;;8.32;3.85;;;7.00;99.90;;;;;;5082150;28;20036;-80
2022/05/02 02:40:22;;;;;;;4.47;4.13;;;6.90;99.90;;;;;;5063628;28;20078;-80
2022/05/02 02:42:49;;;;;;;4.07;3.70;;;7.00;99.90;;;;;;5082218;28;20123;-81
2022/05/02 02:45:15;;;;;;;5.15;4.28;;;6.90;99.90;;;;;;5080685;28;20458;-80
2022/05/02 02:47:41;;;;;;;3.63;3.42;;;6.90;99.90;;;;;;5082270;28;20063;-80
2022/05/02 02:50:07;;;;;;;4.70;3.55;;;6.90;99.90;;;;;;5080389;28;20233;-80
2022/05/02 02:52:33;;;;;;;2.50;2.30;;;6.80;99.90;;;;;;5081116;28;20043;-80
2022/05/02 02:54:58;;;;;;;3.80;3.33;;;6.90;99.90;;;;;;5063897;28;20112;-79
2022/05/02 02:57:24;;;;;;;5.25;3.72;;;6.80;99.90;;;;;;5080960;28;20346;-80
2022/05/02 02:59:50;;;;;;;4.60;4.20;;;6.80;99.90;;;;;;5081078;28;20040;-80
2022/05/02 03:02:15;;;;;;;4.15;3.85;;;6.80;99.90;;;;;;5080628;28;20202;-80
2022/05/02 03:07:27;;;;;;;6.07;3.53;;;6.80;99.90;;;;;;5081536;28;20448;-80
2022/05/02 03:09:53;;;;;;;8.65;5.13;;;6.80;99.90;;;;;;5080566;28;20131;-80
2022/05/02 03:12:19;;;;;;;3.17;2.88;;;6.80;99.90;;;;;;5081241;28;20549;-80
2022/05/02 03:14:44;;;;;;;3.28;3.08;;;6.80;99.90;;;;;;5080695;28;20127;-80
2022/05/02 03:17:10;;;;;;;4.40;3.75;;;6.70;99.90;;;;;;5062631;28;20135;-80
2022/05/02 03:19:36;;;;;;;4.97;4.57;;;6.80;99.90;;;;;;5062463;28;20071;-80
2022/05/02 03:22:02;;;;;;;9.52;3.67;;;6.70;99.90;;;;;;5080281;28;20046;-80
2022/05/02 03:24:28;;;;;;;3.92;3.58;;;6.70;99.90;;;;;;5063147;28;20470;-80
2022/05/02 03:26:54;;;;;;;8.70;4.25;;;6.70;99.90;;;;;;5062720;28;20079;-80
2022/05/02 03:29:20;;;;;;;5.60;4.30;;;6.70;99.90;;;;;;5080488;28;20044;-80
2022/05/02 03:31:45;;;;;;;4.65;4.25;;;6.70;99.90;;;;;;5063127;28;20109;-80
2022/05/02 03:34:11;;;;;;;4.03;3.38;;;6.70;99.90;;;;;;5079312;28;20044;-80
2022/05/02 03:36:37;;;;;;;4.03;3.78;;;6.70;99.90;;;;;;5080657;28;20425;-80
2022/05/02 03:39:02;;;;;;;5.15;4.65;;;6.70;99.90;;;;;;5062482;28;20032;-79
2022/05/02 03:41:28;;;;;;;4.25;3.10;;;6.70;99.90;;;;;;5062832;28;20040;-80
2022/05/02 03:43:53;;;;;;;6.45;4.30;;;6.60;99.90;;;;;;5080683;28;20044;-80
2022/05/02 03:46:19;;;;;;;3.63;3.42;;;6.60;99.90;;;;;;5080094;28;20032;-80
2022/05/02 03:48:44;;;;;;;5.10;3.90;;;6.60;99.90;;;;;;5079432;28;20486;-80
2022/05/02 03:51:11;;;;;;;4.13;3.65;;;6.60;99.90;;;;;;5080791;28;20093;-80
2022/05/02 03:53:36;;;;;;;4.40;4.00;;;6.60;99.90;;;;;;5079846;28;20051;-80
2022/05/02 03:56:02;;;;;;;4.88;4.47;;;6.60;99.90;;;;;;5080275;28;20036;-80
2022/05/02 03:58:28;;;;;;;4.78;4.30;;;6.60;99.90;;;;;;5080624;28;20040;-80
2022/05/02 04:00:53;;;;;;;6.00;4.82;;;6.60;99.90;;;;;;5079608;28;20486;-80
2022/05/02 04:03:19;;;;;;;4.30;3.90;;;6.60;99.90;;;;;;5080354;28;20036;-80
2022/05/02 04:05:45;;;;;;;4.03;3.63;;;6.60;99.90;;;;;;5079077;28;20282;-80
2022/05/02 04:08:11;;;;;;;7.68;5.30;;;6.60;99.90;;;;;;5079608;28;20124;-80
2022/05/02 04:10:36;;;;;;;4.53;4.18;;;6.60;99.90;;;;;;5080050;28;20451;-80
2022/05/02 04:13:02;;;;;;;3.35;3.05;;;6.60;99.90;;;;;;5078964;28;20105;-80
2022/05/02 04:15:27;;;;;;;5.50;4.63;;;6.50;99.90;;;;;;5080254;28;20036;-80
2022/05/02 04:17:55;;;;;;;5.85;5.30;;;6.50;99.90;;;;;;5079744;28;20040;-80
2022/05/02 04:20:21;;;;;;;4.35;3.95;;;6.50;99.90;;;;;;5060914;28;20056;-80
2022/05/02 04:22:47;;;;;;;5.70;4.30;;;6.50;99.90;;;;;;5080045;28;20047;-80
2022/05/02 04:25:13;;;;;;;5.65;4.07;;;6.50;99.90;;;;;;5079167;28;20055;-80
2022/05/02 04:27:38;;;;;;;9.90;3.78;;;6.50;99.90;;;;;;5080256;28;20040;-80
2022/05/02 04:30:05;;;;;;;9.10;3.63;;;6.50;99.90;;;;;;5079124;28;20044;-81
2022/05/02 04:32:30;;;;;;;3.10;2.90;;;6.50;99.90;;;;;;5061467;28;20036;-80
2022/05/02 04:34:58;;;;;;;8.15;5.53;;;6.50;99.90;;;;;;5079635;28;20109;-80
2022/05/02 04:37:24;;;;;;;4.05;3.72;;;6.50;99.90;;;;;;5078885;28;20601;-80
2022/05/02 04:39:50;;;;;;;4.40;4.05;;;6.50;99.90;;;;;;5061781;28;20123;-80
2022/05/02 04:42:15;;;;;;;4.90;4.28;;;6.50;99.90;;;;;;5078968;28;20119;-79
2022/05/02 04:44:41;;;;;;;6.53;3.38;;;6.50;99.90;;;;;;5079420;28;20044;-80
2022/05/02 04:47:06;;;;;;;7.90;4.85;;;6.50;99.90;;;;;;5079573;28;20459;-80
2022/05/02 04:49:32;;;;;;;5.20;4.70;;;6.50;99.90;;;;;;5078251;28;20071;-80
2022/05/02 04:51:58;;;;;;;4.63;3.55;;;6.50;99.90;;;;;;5080114;28;20040;-81
2022/05/02 04:54:23;;;;;;;4.30;3.50;;;6.50;99.90;;;;;;5079309;28;20256;-80
2022/05/02 04:56:49;;;;;;;4.78;4.38;;;6.50;99.90;;;;;;5079100;28;20040;-80
2022/05/02 04:59:14;;;;;;;4.28;3.78;;;6.50;99.90;;;;;;5079179;28;20046;-80
2022/05/02 05:01:40;;;;;;;4.18;3.88;;;6.50;99.90;;;;;;5079200;28;20540;-80
2022/05/02 05:04:06;;;;;;;5.10;3.97;;;6.50;99.90;;;;;;5059887;28;20075;-80
2022/05/02 05:06:31;;;;;;;4.38;4.03;;;6.50;99.90;;;;;;5079347;28;20093;-80
2022/05/02 05:08:57;;;;;;;3.90;3.60;;;6.50;99.90;;;;;;5079087;28;20221;-80
2022/05/02 05:11:45;;;;;;;6.63;3.65;;;6.60;99.90;;;;;;5079247;28;20048;-80
2022/05/02 05:17:29;;;;;;;4.00;3.70;;;6.60;99.90;;;;;;5078448;28;20239;-80
2022/05/02 05:20:09;;;;;;;7.55;4.95;;;6.60;99.90;;;;;;5060378;28;20055;-80
2022/05/02 05:23:13;;;;;;;5.47;4.75;;;6.60;99.90;;;;;;5061766;28;20043;-80
2022/05/02 05:25:54;;;;;;;4.68;3.85;;;6.70;99.90;;;;;;5070257;28;20402;-80
2022/05/02 05:28:49;;;;;;;11.10;5.82;;;6.70;99.90;;;;;;5082213;28;20486;-80
2022/05/02 05:31:29;;;;;;;5.00;4.20;;;6.70;99.90;;;;;;5082976;28;20055;-80
2022/05/02 05:34:06;;;;;;;6.60;5.35;;;6.80;99.90;;;;;;5081615;28;20048;-80
2022/05/02 05:36:52;;;;;;;4.95;3.72;;;6.90;99.90;;;;;;5082378;28;20044;-80
2022/05/02 05:39:45;;;;;;;4.70;4.28;;;6.90;99.90;;;;;;5064817;28;20046;-80
2022/05/02 05:42:37;;;;;;;8.80;5.65;;;6.90;99.90;;;;;;5064143;28;20127;-80
2022/05/02 05:45:10;;;;;;;5.25;4.80;;;6.90;99.90;;;;;;5082559;28;20211;-80
2022/05/02 05:47:54;;;;;;;3.75;3.42;;;7.00;99.90;;;;;;5062873;28;20050;-80
2022/05/02 05:50:29;;;;;;;4.47;4.07;;;7.00;99.90;;;;;;5061326;28;20127;-80
2022/05/02 05:53:06;;;;;;;15.95;4.90;;;7.10;99.90;;;;;;5062619;28;20052;-80
2022/05/02 05:55:59;;;;;;;6.28;5.35;;;7.10;99.90;;;;;;5062660;28;20122;-80
2022/05/02 05:58:34;;;;;;;;;;;7.10;99.90;;;;;;5044986;28;20135;-80
2022/05/02 06:01:11;;;;;;;5.03;4.57;;;7.20;99.90;;;;;;5044371;28;20005;-80
2022/05/02 06:03:51;;;;;;;8.27;6.38;;;7.20;99.90;;;;;;5060923;28;20083;-80
2022/05/02 06:06:16;;;;;;;8.23;5.85;;;7.20;99.90;;;;;;5061537;28;20052;-80
2022/05/02 06:08:46;;;;;;;5.75;5.25;;;7.20;99.90;;;;;;5027956;28;20411;-80
2022/05/02 06:11:14;;;;;;;4.53;4.13;;;7.30;99.90;;;;;;5043569;28;20048;-80
2022/05/02 06:13:41;;;;;;;7.28;6.55;;;7.30;99.90;;;;;;5062056;28;20702;-80
2022/05/02 06:18:57;;;;;;;6.32;4.95;;;7.40;99.90;;;;;;5043154;28;20060;-80
2022/05/02 06:21:23;;;;;;;4.47;4.05;;;7.40;99.90;;;;;;5061344;28;20105;-80
2022/05/02 06:23:52;;;;;;;5.45;4.22;;;7.50;99.90;;;;;;5062107;28;20514;-79
2022/05/02 06:26:22;;;;;;;19.20;4.25;;;7.50;99.90;;;;;;5061302;28;20043;-80
2022/05/02 06:28:49;;;;;;;4.75;4.32;;;7.60;99.90;;;;;;5062072;28;20037;-80
2022/05/02 06:31:18;;;;;;;6.75;5.20;;;7.60;99.90;;;;;;5043512;28;20091;-80
2022/05/02 06:33:48;;;;;;;6.60;6.00;;;7.60;99.90;;;;;;5060292;28;20549;-79
2022/05/02 06:36:35;;;;;;;4.88;4.38;;;7.70;99.90;;;;;;5060480;28;20044;-80
2022/05/02 06:39:16;;;;;;;4.20;3.55;;;7.70;99.90;;;;;;5043261;28;20102;-80
2022/05/02 06:41:52;;;;;;;6.70;5.40;;;7.70;99.90;;;;;;5061140;28;20272;-80
2022/05/02 06:44:55;;;;;;;4.05;3.85;;;7.80;99.90;;;;;;5043604;28;20113;-80
2022/05/02 06:47:45;;;;;;;3.33;3.10;;;7.80;99.90;;;;;;5054285;28;20578;-80
2022/05/02 06:50:15;;;;;;;4.38;3.90;;;7.80;99.90;;;;;;5080031;28;20529;-80
2022/05/02 06:52:58;;;;;;;4.75;3.78;;;7.90;99.90;;;;;;5082032;28;20040;-80
2022/05/02 06:55:39;;;;;;;5.10;4.65;;;7.90;99.90;;;;;;5081388;28;20044;-80
2022/05/02 06:58:29;;;;;;;5.20;4.72;;;8.00;99.90;;;;;;5080993;28;20044;-80
2022/05/02 07:01:02;;;;;;;6.00;4.65;;;8.00;99.90;;;;;;5082127;28;20385;-81
2022/05/02 07:03:59;;;;;;;5.32;4.82;;;8.10;99.90;;;;;;5080763;28;20052;-81
2022/05/02 07:06:40;;;;;;;5.13;4.20;;;8.10;99.90;;;;;;5062198;28;20048;-81
2022/05/02 07:09:09;;;;;;;5.43;4.63;;;8.20;99.90;;;;;;5062871;28;20067;-81
2022/05/02 07:11:52;;;;;;;6.70;4.43;;;8.30;99.90;;;;;;5080847;28;20052;-81
2022/05/02 07:14:26;;;;;;;5.25;4.47;;;8.30;99.90;;;;;;5080299;28;20085;-81
2022/05/02 07:16:55;;;;;;;4.53;4.13;;;8.30;99.90;;;;;;5063095;28;20243;-81
2022/05/02 07:19:28;;;;;;;6.20;4.82;;;8.40;99.90;;;;;;5062368;28;20122;-81
2022/05/02 07:21:57;;;;;;;3.92;3.60;;;8.40;99.90;;;;;;5080847;28;20044;-81
2022/05/02 07:24:22;;;;;;;3.58;3.28;;;8.40;99.90;;;;;;5080597;28;20742;-81
2022/05/02 07:27:05;;;;;;;4.32;3.53;;;8.50;99.90;;;;;;5062305;28;20044;-81
2022/05/02 07:29:34;;;;;;;4.90;4.25;;;8.50;99.90;;;;;;5063361;28;20044;-82
2022/05/02 07:32:01;;;;;;;5.43;3.30;;;8.60;99.90;;;;;;5080973;28;20086;-81
2022/05/02 07:34:29;;;;;;;4.47;4.10;;;8.60;99.90;;;;;;5080493;28;20051;-81
2022/05/02 07:36:54;;;;;;;6.30;3.53;;;8.70;99.90;;;;;;5080049;28;20071;-81
2022/05/02 07:39:22;;;;;;;5.50;3.58;;;8.70;99.90;;;;;;5080404;28;20098;-81
2022/05/02 07:41:49;;;;;;;3.92;3.63;;;8.70;99.90;;;;;;5080648;28;20040;-81
2022/05/02 07:44:16;;;;;;;7.18;3.78;;;8.80;99.90;;;;;;5080349;28;20101;-81
2022/05/02 07:46:45;;;;;;;4.88;3.85;;;8.80;99.90;;;;;;5080197;28;20044;-79
2022/05/02 07:49:14;;;;;;;2.60;2.42;;;8.90;99.90;;;;;;5079377;28;20128;-79
2022/05/02 07:51:50;;;;;;;3.72;3.42;;;8.90;99.90;;;;;;5080134;28;20059;-79
2022/05/02 07:54:20;;;;;;;7.97;3.67;;;8.90;99.90;;;;;;5045042;28;20052;-79
2022/05/02 07:56:47;;;;;;;12.10;3.70;;;9.00;99.90;;;;;;5062199;28;20098;-79
2022/05/02 07:59:15;;;;;;;10.57;4.05;;;9.00;99.90;;;;;;5079946;28;20064;-80
2022/05/02 08:01:40;;;;;;;4.95;4.13;;;9.00;99.90;;;;;;5079982;28;20065;-79
2022/05/02 08:04:06;;;;;;;4.82;3.97;;;9.10;99.90;;;;;;5079633;28;20040;-79
2022/05/02 08:06:46;;;;;;;5.25;3.75;;;9.20;99.90;;;;;;5079064;28;20040;-79
2022/05/02 08:09:52;;;;;;;17.40;3.70;;;9.20;99.90;;;;;;5079457;28;20083;-79
2022/05/02 08:12:37;;;;;;;4.05;3.65;;;9.20;99.90;;;;;;5045456;28;20047;-80
2022/05/02 08:15:13;;;;;;;3.35;3.05;;;9.30;99.90;;;;;;5061356;28;20156;-80
2022/05/02 08:18:20;;;;;;;6.03;4.07;;;9.40;99.90;;;;;;5079492;28;20526;-80
2022/05/02 08:21:01;;;;;;;3.05;2.67;;;9.50;99.90;;;;;;5044271;28;20044;-79
2022/05/02 08:30:05;;;;;;;4.22;3.83;;;9.60;99.90;;;;;;5045621;28;20114;-80
2022/05/02 08:33:04;;;;;;;7.35;3.47;;;9.60;99.90;;;;;;5079589;28;20118;-80
2022/05/02 08:35:49;;;;;;;3.70;3.35;;;9.60;99.90;;;;;;5062010;28;20043;-79
2022/05/02 08:38:26;;;;;;;4.18;3.75;;;9.70;99.90;;;;;;5079431;28;20391;-80
2022/05/02 08:41:22;;;;;;;3.95;3.45;;;9.60;99.90;;;;;;5080385;28;20044;-80
2022/05/02 08:44:12;;;;;;;3.35;3.15;;;9.60;99.90;;;;;;5079746;28;20085;-80
2022/05/02 08:47:16;;;;;;;3.85;2.97;;;9.60;99.90;;;;;;5048875;28;20048;-80
2022/05/02 08:50:33;;;;;;;3.45;2.97;;;9.60;99.90;;;;;;5036802;28;20052;-80
2022/05/02 08:53:40;;;;;;;6.43;3.80;;;9.70;99.90;;;;;;5024802;28;20044;-79
2022/05/02 08:56:32;;;;;;;5.82;4.47;;;9.80;99.90;;;;;;5041367;28;20445;-79
2022/05/02 08:58:58;;;;;;;4.18;3.78;;;9.80;99.90;;;;;;5059416;28;20040;-79
2022/05/02 09:02:00;;;;;;;6.18;3.85;;;9.90;99.90;;;;;;5058866;28;20529;-79
2022/05/02 09:04:56;;;;;;;4.57;3.60;;;9.90;99.90;;;;;;5023701;28;20044;-80
2022/05/02 09:07:40;;;;;;;6.25;3.92;;;9.90;99.90;;;;;;5040392;28;20123;-79
2022/05/02 09:10:15;;;;;;;4.22;3.33;;;9.90;99.90;;;;;;5058938;28;20414;-80
2022/05/02 09:12:50;;;;;;;4.20;3.80;;;9.90;99.90;;;;;;5058915;28;20430;-80
2022/05/02 09:15:39;;;;;;;4.43;4.00;;;10.00;99.90;;;;;;5040793;28;20502;-80
2022/05/02 09:18:26;;;;;;;5.65;3.58;;;10.00;99.90;;;;;;5058558;28;20106;-80
2022/05/02 09:20:56;;;;;;;3.40;2.83;;;10.10;99.90;;;;;;5058532;28;20064;-80
2022/05/02 09:23:42;;;;;;;4.57;4.03;;;10.20;99.90;;;;;;5058977;28;20521;-80
2022/05/02 09:26:30;;;;;;;3.83;3.33;;;10.20;99.90;;;;;;5040207;28;20057;-79
2022/05/02 09:29:29;;;;;;;4.68;3.63;;;10.20;99.90;;;;;;5041511;28;20055;-80
2022/05/02 09:32:03;;;;;;;3.47;3.17;;;10.30;99.90;;;;;;5040970;28;20079;-79
2022/05/02 09:34:40;;;;;;;8.45;3.45;;;10.40;99.90;;;;;;5040953;28;20040;-80
2022/05/02 09:37:11;;;;;;;6.82;3.28;;;10.40;99.90;;;;;;5040930;28;20044;-80
2022/05/02 09:40:02;;;;;;;4.68;3.92;;;10.40;99.90;;;;;;5041112;28;20048;-80
2022/05/02 09:42:46;;;;;;;3.67;2.53;;;10.40;99.90;;;;;;5041047;28;20116;-79
2022/05/02 09:51:32;;;;;;;9.10;3.25;;;10.50;99.90;;;;;;5061392;28;20120;-80
2022/05/02 09:57:17;;;;;;;5.72;3.78;;;10.70;99.90;;;;;;5078704;28;20051;-82
2022/05/02 10:02:48;;;;;;;11.82;4.32;;;10.70;99.90;;;;;;5059259;28;20075;-81
2022/05/02 10:05:54;;;;;;;4.05;2.35;;;10.80;99.90;;;;;;5078061;28;20040;-82
2022/05/02 10:08:22;;;;;;;3.35;2.78;;;10.80;99.90;;;;;;4995934;28;20458;-83
2022/05/02 10:11:05;;;;;;;4.70;2.42;;;10.80;99.90;;;;;;4998217;28;20050;-82
2022/05/02 10:13:52;;;;;;;2.65;2.05;;;10.80;99.90;;;;;;5032768;28;20402;-82
2022/05/02 10:16:23;;;;;;;3.42;2.25;;;10.90;99.90;;;;;;5082481;28;20133;-81
2022/05/02 10:19:33;;;;;;;2.65;2.05;;;10.90;99.90;;;;;;5063358;28;20371;-82
2022/05/02 10:22:28;;;;;;;1.95;1.80;;;10.90;99.90;;;;;;5043363;28;20048;-82
2022/05/02 10:25:18;;;;;;;3.58;2.65;;;11.00;99.90;;;;;;5064105;28;20142;-82
2022/05/02 10:27:53;;;;;;;2.25;2.05;;;11.00;99.90;;;;;;5082150;28;20042;-82
2022/05/02 10:30:19;;;;;;;2.88;2.58;;;11.00;99.90;;;;;;5081652;28;20040;-82
2022/05/02 10:32:56;;;;;;;4.45;2.97;;;11.00;99.90;;;;;;5081333;28;20028;-81
2022/05/02 10:35:23;;;;;;;3.10;2.90;;;11.10;99.90;;;;;;5063721;28;20062;-82
2022/05/02 10:38:04;;;;;;;6.68;2.50;;;11.20;99.90;;;;;;5081824;28;20457;-82
2022/05/02 10:40:40;;;;;;;1.95;1.85;;;11.20;99.90;;;;;;5081676;28;20508;-83
2022/05/02 10:43:10;;;;;;;4.07;2.47;;;11.20;99.90;;;;;;5081195;28;20040;-82
2022/05/02 10:45:38;;;;;;;2.95;2.47;;;11.30;99.90;;;;;;5081655;28;20046;-82
2022/05/02 10:48:15;;;;;;;2.50;2.30;;;11.30;99.90;;;;;;5062369;28;20048;-83
2022/05/02 10:50:44;;;;;;;2.78;2.58;;;11.30;99.90;;;;;;5081621;28;20415;-80
2022/05/02 10:53:16;;;;;;;3.10;2.80;;;11.30;99.90;;;;;;5081182;28;20287;-80
2022/05/02 10:56:17;;;;;;;5.22;3.33;;;11.30;99.90;;;;;;5081332;28;20454;-80
2022/05/02 10:58:44;;;;;;;3.63;2.88;;;11.40;99.90;;;;;;5081711;28;20036;-80
2022/05/02 11:01:41;;;;;;;2.30;1.98;;;11.40;99.90;;;;;;5080885;28;20032;-80
2022/05/02 11:04:21;;;;;;;4.15;2.15;;;11.40;99.90;;;;;;5079836;28;20079;-81
2022/05/02 11:07:10;;;;;;;3.20;2.90;;;11.40;99.90;;;;;;5080895;28;20046;-80
2022/05/02 11:09:47;;;;;;;2.22;2.03;;;11.50;99.90;;;;;;5062759;28;20703;-80
2022/05/02 11:12:19;;;;;;;5.35;2.22;;;11.50;99.90;;;;;;5062817;28;20066;-81
2022/05/02 11:14:53;;;;;;;2.47;1.93;;;11.60;99.90;;;;;;5081495;28;20048;-80
2022/05/02 11:17:26;;;;;;;5.47;3.00;;;11.70;99.90;;;;;;5079591;28;20105;-81
2022/05/02 11:23:05;;;;;;;3.72;2.80;;;11.80;99.90;;;;;;5064749;28;20046;-80
2022/05/02 11:25:37;;;;;;;4.95;2.55;;;11.90;99.90;;;;;;5080533;28;20047;-81
2022/05/02 11:28:19;;;;;;;;;;;11.90;99.90;;;;;;5081003;28;20036;-81
2022/05/02 11:30:50;;;;;;;2.15;1.92;;;11.90;99.90;;;;;;5080794;28;20348;-80
2022/05/02 11:33:42;;;;;;;3.40;3.05;;;11.90;99.90;;;;;;5061408;28;20036;-80
2022/05/02 11:36:12;;;;;;;3.03;1.92;;;11.90;99.90;;;;;;5080615;28;20046;-81
2022/05/02 11:38:59;;;;;;;2.10;1.80;;;12.00;99.90;;;;;;5080026;28;20054;-80
2022/05/02 11:41:28;;;;;;;3.10;2.53;;;12.00;99.90;;;;;;5080825;28;20053;-81
2022/05/02 11:44:12;;;;;;;3.28;1.75;;;12.10;99.90;;;;;;5045897;28;20075;-81
2022/05/02 11:47:05;;;;;;;1.63;1.52;;;12.10;99.90;;;;;;5080406;28;20123;-81
2022/05/02 11:49:49;;;;;;;2.03;1.92;;;12.20;99.90;;;;;;5061376;28;20340;-80
2022/05/02 11:52:34;;;;;;;6.30;2.20;;;12.10;99.90;;;;;;5080220;28;20515;-81
2022/05/02 11:55:01;;;;;;;2.22;1.75;;;12.10;99.90;;;;;;5080432;28;20094;-80
2022/05/02 11:57:44;;;;;;;3.05;1.83;;;12.20;99.90;;;;;;5062542;28;20051;-80
2022/05/02 12:00:17;;;;;;;2.83;2.25;;;12.20;99.90;;;;;;5063099;28;20097;-80
2022/05/02 12:02:52;;;;;;;2.38;2.22;;;12.30;99.90;;;;;;5079340;28;20032;-80
2022/05/02 12:05:23;;;;;;;2.35;1.88;;;12.20;99.90;;;;;;5079906;28;20044;-80
2022/05/02 12:08:10;;;;;;;2.42;2.13;;;12.20;99.90;;;;;;5080098;28;20040;-80
2022/05/02 12:10:37;;;;;;;3.60;2.28;;;12.20;99.90;;;;;;5079502;28;20132;-81
2022/05/02 12:13:05;;;;;;;4.20;2.85;;;12.30;99.90;;;;;;5080337;28;20051;-81
2022/05/02 12:15:31;;;;;;;4.97;3.25;;;12.40;99.90;;;;;;5061984;28;20039;-81
2022/05/02 12:17:56;;;;;;;2.05;1.95;;;12.50;99.90;;;;;;5079901;28;20028;-80
2022/05/02 12:20:30;;;;;;;3.53;2.40;;;12.50;99.90;;;;;;5079597;28;20039;-81
2022/05/02 12:23:01;;;;;;;2.05;1.90;;;12.50;99.90;;;;;;5063000;28;20040;-80
2022/05/02 12:25:28;;;;;;;6.00;3.60;;;12.50;99.90;;;;;;5080116;28;20032;-80
2022/05/02 12:27:57;;;;;;;3.28;2.95;;;12.50;99.90;;;;;;5061633;28;20079;-81
2022/05/02 12:30:26;;;;;;;4.40;2.83;;;12.50;99.90;;;;;;5079551;28;20040;-81
2022/05/02 12:32:57;;;;;;;2.30;2.10;;;12.40;99.90;;;;;;5078137;28;20040;-80
2022/05/02 12:35:24;;;;;;;2.65;2.45;;;12.40;99.90;;;;;;5061788;28;20395;-80
2022/05/02 12:37:51;;;;;;;2.13;1.83;;;12.50;99.90;;;;;;5079276;28;20044;-80
2022/05/02 12:40:20;;;;;;;2.05;1.85;;;12.50;99.90;;;;;;5061498;28;20159;-81
2022/05/02 12:42:51;;;;;;;2.08;1.98;;;12.60;99.90;;;;;;5060839;28;20076;-80
2022/05/02 12:45:19;;;;;;;2.80;2.60;;;12.70;99.90;;;;;;5061815;28;20052;-81
2022/05/02 12:47:54;;;;;;;3.25;2.95;;;12.70;99.90;;;;;;5078191;28;20032;-80
2022/05/02 12:50:21;;;;;;;3.22;2.50;;;12.70;99.90;;;;;;5060888;28;20054;-80
2022/05/02 12:52:52;;;;;;;4.43;2.97;;;12.70;99.90;;;;;;5079660;28;20051;-80
2022/05/02 12:55:20;;;;;;;3.75;2.78;;;12.70;99.90;;;;;;5060760;28;20407;-80
2022/05/02 13:00:40;;;;;;;1.75;1.52;;;12.70;99.90;;;;;;5079226;28;20339;-81
2022/05/02 13:03:17;;;;;;;1.98;1.88;;;12.70;99.90;;;;;;5060202;28;20047;-82
2022/05/02 13:05:46;;;;;;;3.65;1.88;;;12.70;99.90;;;;;;5061264;28;20100;-80
2022/05/02 13:08:20;;;;;;;1.80;1.10;;;12.90;99.90;;;;;;5060284;28;20083;-81
2022/05/02 13:10:52;;;;;;;2.13;1.45;;;12.90;99.90;;;;;;5078777;28;20056;-80
2022/05/02 13:13:17;;;;;;;2.50;1.65;;;12.90;99.90;;;;;;5078779;28;20328;-81
2022/05/02 13:15:45;;;;;;;2.70;2.50;;;12.90;99.90;;;;;;5079262;28;20181;-81
2022/05/02 13:18:13;;;;;;;2.55;2.35;;;13.00;99.90;;;;;;5060708;28;20129;-81
2022/05/02 13:20:39;;;;;;;1.60;1.50;;;13.00;99.90;;;;;;5078981;28;20036;-81
2022/05/02 13:23:15;;;;;;;3.50;2.20;;;13.00;99.90;;;;;;5079185;28;20119;-81
2022/05/02 13:26:04;;;;;;;3.58;1.63;;;13.00;99.90;;;;;;5079117;28;20105;-81
2022/05/02 13:28:58;;;;;;;1.45;1.35;;;13.00;99.90;;;;;;5079243;28;20092;-81
2022/05/02 13:31:32;;;;;;;2.15;1.50;;;12.90;99.90;;;;;;5078862;28;20048;-80
2022/05/02 13:34:02;;;;;;;4.28;2.08;;;12.90;99.90;;;;;;5078885;28;20074;-81
2022/05/02 13:36:38;;;;;;;1.40;1.30;;;13.00;99.90;;;;;;5079307;28;20040;-81
2022/05/02 13:39:31;;;;;;;1.38;1.27;;;13.10;99.90;;;;;;5060198;28;20083;-81
2022/05/02 13:42:03;;;;;;;1.13;1.13;;;13.10;99.90;;;;;;5078872;28;20459;-80
2022/05/02 13:44:42;;;;;;;2.72;1.52;;;13.10;99.90;;;;;;5080442;28;20043;-81
2022/05/02 13:47:14;;;;;;;0.98;0.90;;;13.10;99.90;;;;;;5047933;28;20127;-81
2022/05/02 13:50:03;;;;;;;2.92;1.38;;;13.00;99.90;;;;;;5044694;28;20052;-81
2022/05/02 13:52:50;;;;;;;1.10;1.08;;;13.10;99.90;;;;;;5062733;28;20059;-81
2022/05/02 13:55:28;;;;;;;3.10;1.17;;;13.20;99.90;;;;;;5061807;28;20049;-81
2022/05/02 13:58:03;;;;;;;2.33;1.42;;;13.20;99.90;;;;;;5062181;28;20078;-81